createdAt,value
2017-10-12T00:00:30.744Z,1.60
2017-10-12T00:02:58.265Z,1.60
2017-10-12T00:05:25.777Z,1.83
2017-10-12T00:07:53.287Z,1.70
2017-10-12T00:10:20.796Z,1.97
2017-10-12T00:12:48.309Z,1.30
2017-10-12T00:15:17.329Z,1.73
2017-10-12T00:17:44.827Z,1.63
2017-10-12T00:20:12.332Z,1.97
2017-10-12T00:22:39.865Z,2.27
2017-10-12T00:25:07.367Z,2.00
2017-10-12T00:27:34.875Z,1.67
2017-10-12T00:30:02.994Z,1.80
2017-10-12T00:32:30.503Z,1.57
2017-10-12T00:34:58.011Z,1.83
2017-10-12T00:37:25.520Z,1.87
2017-10-12T00:39:53.027Z,1.80
2017-10-12T00:42:21.303Z,1.80
2017-10-12T00:44:50.328Z,1.50
2017-10-12T00:47:17.823Z,1.77
2017-10-12T00:49:45.348Z,1.80
2017-10-12T00:52:12.843Z,1.53
2017-10-12T00:54:40.363Z,1.73
2017-10-12T00:57:07.884Z,1.87
2017-10-12T00:59:35.391Z,2.17
2017-10-12T01:02:03.291Z,1.47
2017-10-12T01:04:30.802Z,1.83
2017-10-12T01:06:58.303Z,1.50
2017-10-12T01:09:27.166Z,1.80
2017-10-12T01:11:54.686Z,2.10
2017-10-12T01:14:23.550Z,1.60
2017-10-12T01:16:52.420Z,2.30
2017-10-12T01:19:20.707Z,1.50
2017-10-12T01:21:48.612Z,1.80
2017-10-12T01:24:16.515Z,1.60
2017-10-12T01:26:44.791Z,1.80
2017-10-12T01:29:12.305Z,1.77
2017-10-12T01:31:41.357Z,1.70
2017-10-12T01:34:08.869Z,1.90
2017-10-12T01:36:36.767Z,1.53
2017-10-12T01:39:05.639Z,1.80
2017-10-12T01:41:33.931Z,1.83
2017-10-12T01:44:02.584Z,2.00
2017-10-12T01:46:30.879Z,1.93
2017-10-12T01:48:59.155Z,1.87
2017-10-12T01:51:26.662Z,1.97
2017-10-12T01:53:54.178Z,2.10
2017-10-12T01:56:21.679Z,2.00
2017-10-12T01:58:49.171Z,1.97
2017-10-12T02:01:17.449Z,1.63
2017-10-12T02:03:44.973Z,1.80
2017-10-12T02:06:12.490Z,1.60
2017-10-12T02:08:40.775Z,1.70
2017-10-12T02:11:08.295Z,1.70
2017-10-12T02:13:35.812Z,1.73
2017-10-12T02:16:03.351Z,1.80
2017-10-12T02:18:30.848Z,1.83
2017-10-12T02:20:59.119Z,1.87
2017-10-12T02:23:27.388Z,1.93
2017-10-12T02:25:56.048Z,1.50
2017-10-12T02:28:23.576Z,2.10
2017-10-12T02:30:51.088Z,2.07
2017-10-12T02:33:19.364Z,1.50
2017-10-12T02:35:47.271Z,2.27
2017-10-12T02:38:15.548Z,1.33
2017-10-12T02:40:43.074Z,1.70
2017-10-12T02:43:11.347Z,2.00
2017-10-12T02:45:39.620Z,1.73
2017-10-12T02:48:07.128Z,1.53
2017-10-12T02:50:34.639Z,1.53
2017-10-12T02:53:02.136Z,1.60
2017-10-12T02:55:29.656Z,1.67
2017-10-12T02:57:58.687Z,1.60
2017-10-12T03:00:26.964Z,1.60
2017-10-12T03:02:54.455Z,1.30
2017-10-12T03:05:23.119Z,1.10
2017-10-12T03:11:06.051Z,1.60
2017-10-12T03:13:34.327Z,1.50
2017-10-12T03:16:02.603Z,1.70
2017-10-12T03:18:31.454Z,1.20
2017-10-12T03:20:58.952Z,1.50
2017-10-12T03:23:26.469Z,1.20
2017-10-12T03:25:53.958Z,1.60
2017-10-12T03:28:22.235Z,1.47
2017-10-12T03:30:49.727Z,1.30
2017-10-12T03:33:18.576Z,1.47
2017-10-12T03:35:46.471Z,2.23
2017-10-12T03:38:15.483Z,1.80
2017-10-12T03:40:43.011Z,1.70
2017-10-12T03:43:11.282Z,1.60
2017-10-12T03:45:38.775Z,1.70
2017-10-12T03:48:06.295Z,1.50
2017-10-12T03:50:33.810Z,1.47
2017-10-12T03:53:01.319Z,1.50
2017-10-12T03:55:28.844Z,1.50
2017-10-12T03:57:56.363Z,1.70
2017-10-12T04:00:23.903Z,1.53
2017-10-12T04:02:51.438Z,1.50
2017-10-12T04:05:19.712Z,1.50
2017-10-12T04:07:47.615Z,1.83
2017-10-12T04:10:15.515Z,1.67
2017-10-12T04:12:43.023Z,1.63
2017-10-12T04:15:11.661Z,1.50
2017-10-12T04:17:39.168Z,1.43
2017-10-12T04:20:06.680Z,1.53
2017-10-12T04:22:35.327Z,1.10
2017-10-12T04:25:03.981Z,1.63
2017-10-12T04:27:31.494Z,1.10
2017-10-12T04:29:58.998Z,1.57
2017-10-12T04:32:26.520Z,1.10
2017-10-12T04:34:54.036Z,1.50
2017-10-12T04:37:21.551Z,1.40
2017-10-12T04:39:49.067Z,1.37
2017-10-12T04:42:17.714Z,1.10
2017-10-12T04:44:45.235Z,1.30
2017-10-12T04:47:13.913Z,1.23
2017-10-12T04:49:41.831Z,1.17
2017-10-12T04:52:09.742Z,1.10
2017-10-12T04:54:37.254Z,1.30
2017-10-12T04:57:04.775Z,1.00
2017-10-12T04:59:32.301Z,1.47
2017-10-12T05:02:01.327Z,1.07
2017-10-12T05:04:28.831Z,1.10
2017-10-12T05:06:56.342Z,1.03
2017-10-12T05:09:24.622Z,1.40
2017-10-12T05:11:52.179Z,1.37
2017-10-12T05:14:20.460Z,1.20
2017-10-12T05:16:49.115Z,1.67
2017-10-12T05:19:17.011Z,1.27
2017-10-12T05:21:45.881Z,1.07
2017-10-12T05:24:13.400Z,1.30
2017-10-12T05:26:40.926Z,1.50
2017-10-12T05:29:08.438Z,1.40
2017-10-12T05:31:35.939Z,1.53
2017-10-12T05:34:04.578Z,1.30
2017-10-12T05:36:32.227Z,1.43
2017-10-12T05:38:59.739Z,1.40
2017-10-12T05:41:27.242Z,1.40
2017-10-12T05:43:54.759Z,1.50
2017-10-12T05:46:22.285Z,1.30
2017-10-12T05:48:49.804Z,1.37
2017-10-12T05:51:17.708Z,1.17
2017-10-12T05:53:45.230Z,1.27
2017-10-12T05:56:12.759Z,1.10
2017-10-12T05:58:40.660Z,1.40
2017-10-12T06:01:08.951Z,1.17
2017-10-12T06:03:36.868Z,1.20
2017-10-12T06:06:05.188Z,1.50
2017-10-12T06:08:32.683Z,1.07
2017-10-12T06:11:00.206Z,1.80
2017-10-12T06:13:27.699Z,1.50
2017-10-12T06:15:55.220Z,1.53
2017-10-12T06:18:23.284Z,1.47
2017-10-12T06:20:50.788Z,1.47
2017-10-12T06:23:19.426Z,1.77
2017-10-12T06:25:46.927Z,1.57
2017-10-12T06:28:14.450Z,1.23
2017-10-12T06:30:41.942Z,1.73
2017-10-12T06:33:09.463Z,1.50
2017-10-12T06:35:37.367Z,1.30
2017-10-12T06:38:04.887Z,1.63
2017-10-12T06:40:32.787Z,1.63
2017-10-12T06:43:01.062Z,1.30
2017-10-12T06:45:28.963Z,1.27
2017-10-12T06:47:56.467Z,1.10
2017-10-12T06:50:23.960Z,1.27
2017-10-12T06:52:52.232Z,1.33
2017-10-12T06:55:21.099Z,1.37
2017-10-12T06:57:48.641Z,1.50
2017-10-12T07:00:16.139Z,1.93
2017-10-12T07:02:43.667Z,1.80
2017-10-12T07:05:11.161Z,1.50
2017-10-12T07:07:38.672Z,1.50
2017-10-12T07:10:06.584Z,1.50
2017-10-12T07:12:34.889Z,1.63
2017-10-12T07:15:02.393Z,2.10
2017-10-12T07:17:31.033Z,1.13
2017-10-12T07:19:59.309Z,1.30
2017-10-12T07:22:27.210Z,1.57
2017-10-12T07:24:55.483Z,1.20
2017-10-12T07:27:23.395Z,1.63
2017-10-12T07:29:51.283Z,1.40
2017-10-12T07:32:18.783Z,1.83
2017-10-12T07:34:46.280Z,1.50
2017-10-12T07:37:13.793Z,2.17
2017-10-12T07:39:41.299Z,1.70
2017-10-12T07:42:08.812Z,2.30
2017-10-12T07:44:36.311Z,1.80
2017-10-12T07:47:05.157Z,1.70
2017-10-12T07:49:34.010Z,2.43
2017-10-12T07:52:02.895Z,1.90
2017-10-12T07:54:31.796Z,2.33
2017-10-12T07:56:59.304Z,1.80
2017-10-12T07:59:26.816Z,1.40
2017-10-12T08:01:54.351Z,2.40
2017-10-12T08:04:21.865Z,1.93
2017-10-12T08:06:49.423Z,2.37
2017-10-12T08:09:16.914Z,2.10
2017-10-12T08:11:44.860Z,2.30
2017-10-12T08:14:12.383Z,2.23
2017-10-12T08:16:39.925Z,2.10
2017-10-12T08:19:07.433Z,2.07
2017-10-12T08:21:35.360Z,2.20
2017-10-12T08:24:03.648Z,2.30
2017-10-12T08:26:31.953Z,2.30
2017-10-12T08:28:59.871Z,1.93
2017-10-12T08:31:27.789Z,2.13
2017-10-12T08:33:56.061Z,2.60
2017-10-12T08:36:23.979Z,1.80
2017-10-12T08:38:51.493Z,2.30
2017-10-12T08:41:19.011Z,2.20
2017-10-12T08:43:46.509Z,2.00
2017-10-12T08:46:14.031Z,2.40
2017-10-12T08:48:41.544Z,2.50
2017-10-12T08:51:09.807Z,2.40
2017-10-12T08:53:37.316Z,1.93
2017-10-12T08:56:04.822Z,2.70
2017-10-12T08:58:32.324Z,2.33
2017-10-12T09:01:00.619Z,2.53
2017-10-12T09:03:29.505Z,2.23
2017-10-12T09:05:57.772Z,2.80
2017-10-12T09:08:25.278Z,2.70
2017-10-12T09:10:54.286Z,2.30
2017-10-12T09:13:22.927Z,2.20
2017-10-12T09:15:50.430Z,2.63
2017-10-12T09:18:19.455Z,2.37
2017-10-12T09:20:46.971Z,2.40
2017-10-12T09:23:14.888Z,2.50
2017-10-12T09:25:42.397Z,2.40
2017-10-12T09:28:11.411Z,2.80
2017-10-12T09:30:38.915Z,2.60
2017-10-12T09:33:06.426Z,2.80
2017-10-12T09:35:34.323Z,2.67
2017-10-12T09:38:01.828Z,2.70
2017-10-12T09:40:29.744Z,2.47
2017-10-12T09:42:57.259Z,2.50
2017-10-12T09:45:25.892Z,2.70
2017-10-12T09:47:53.403Z,2.60
2017-10-12T09:50:22.067Z,2.90
2017-10-12T09:52:49.596Z,2.90
2017-10-12T09:55:17.108Z,2.63
2017-10-12T09:57:44.611Z,2.60
2017-10-12T10:00:12.120Z,2.50
2017-10-12T10:02:41.158Z,2.60
2017-10-12T10:05:08.673Z,2.80
2017-10-12T10:07:36.592Z,2.70
2017-10-12T10:10:04.183Z,3.13
2017-10-12T10:12:32.485Z,2.40
2017-10-12T10:15:00.780Z,3.10
2017-10-12T10:17:28.322Z,2.43
2017-10-12T10:19:55.827Z,3.10
2017-10-12T10:22:23.756Z,2.40
2017-10-12T10:24:51.256Z,2.83
2017-10-12T10:27:19.556Z,2.83
2017-10-12T10:29:47.057Z,3.37
2017-10-12T10:32:14.595Z,3.60
2017-10-12T10:34:42.892Z,2.93
2017-10-12T10:37:11.547Z,2.97
2017-10-12T10:39:39.063Z,2.90
2017-10-12T10:42:06.595Z,2.43
2017-10-12T10:44:35.247Z,2.50
2017-10-12T10:47:02.763Z,2.20
2017-10-12T10:49:30.267Z,3.00
2017-10-12T10:51:58.909Z,2.43
2017-10-12T10:54:27.759Z,2.97
2017-10-12T10:56:56.019Z,2.97
2017-10-12T10:59:23.536Z,3.03
2017-10-12T11:01:51.059Z,2.93
2017-10-12T11:04:18.551Z,2.60
2017-10-12T11:06:46.065Z,2.40
2017-10-12T11:09:13.974Z,2.80
2017-10-12T11:11:41.476Z,2.53
2017-10-12T11:14:08.998Z,3.07
2017-10-12T11:16:37.271Z,2.70
2017-10-12T11:19:06.300Z,2.97
2017-10-12T11:21:33.791Z,2.63
2017-10-12T11:24:01.279Z,2.57
2017-10-12T11:26:28.772Z,2.67
2017-10-12T11:28:56.303Z,3.20
2017-10-12T11:31:23.817Z,2.87
2017-10-12T11:33:51.319Z,3.03
2017-10-12T11:36:19.591Z,3.10
2017-10-12T11:38:47.860Z,3.23
2017-10-12T11:41:15.776Z,2.90
2017-10-12T11:43:43.295Z,3.37
2017-10-12T11:46:10.825Z,2.93
2017-10-12T11:48:38.347Z,2.93
2017-10-12T11:51:06.247Z,2.93
2017-10-12T11:53:33.771Z,3.07
2017-10-12T11:56:01.295Z,3.37
2017-10-12T11:58:29.200Z,2.57
2017-10-12T12:00:56.720Z,3.53
2017-10-12T12:03:25.750Z,3.63
2017-10-12T12:05:53.247Z,3.80
2017-10-12T12:08:21.891Z,2.70
2017-10-12T12:10:49.416Z,3.33
2017-10-12T12:13:16.947Z,3.40
2017-10-12T12:15:44.461Z,2.83
2017-10-12T12:18:11.987Z,3.07
2017-10-12T12:20:39.483Z,2.70
2017-10-12T12:23:07.016Z,3.30
2017-10-12T12:25:34.912Z,2.63
2017-10-12T12:28:03.196Z,3.10
2017-10-12T12:30:31.096Z,2.73
2017-10-12T12:32:58.651Z,3.23
2017-10-12T12:35:26.942Z,3.30
2017-10-12T12:37:54.479Z,2.80
2017-10-12T12:40:23.483Z,3.17
2017-10-12T12:42:51.003Z,3.00
2017-10-12T12:45:18.499Z,3.03
2017-10-12T12:47:46.802Z,3.10
2017-10-12T12:50:14.304Z,3.13
2017-10-12T12:52:41.827Z,3.80
2017-10-12T12:55:09.344Z,3.03
2017-10-12T12:57:36.844Z,3.13
2017-10-12T13:00:05.855Z,3.10
2017-10-12T13:02:33.355Z,3.67
2017-10-12T13:05:00.872Z,3.13
2017-10-12T13:07:28.372Z,2.57
2017-10-12T13:09:55.870Z,3.50
2017-10-12T13:12:23.388Z,3.20
2017-10-12T13:14:51.279Z,3.20
2017-10-12T13:17:19.557Z,3.17
2017-10-12T13:19:47.059Z,4.03
2017-10-12T13:22:14.577Z,3.47
2017-10-12T13:24:42.475Z,3.40
2017-10-12T13:27:09.971Z,2.53
2017-10-12T13:29:39.000Z,3.30
2017-10-12T13:32:06.491Z,3.23
2017-10-12T13:34:33.983Z,2.77
2017-10-12T13:37:02.255Z,2.80
2017-10-12T13:39:31.259Z,3.40
2017-10-12T13:41:58.767Z,2.60
2017-10-12T13:44:26.267Z,2.73
2017-10-12T13:46:54.543Z,2.57
2017-10-12T13:49:22.043Z,2.60
2017-10-12T13:51:49.552Z,3.03
2017-10-12T13:54:17.058Z,2.93
2017-10-12T13:56:44.552Z,2.20
2017-10-12T13:59:12.059Z,2.37
2017-10-12T14:01:39.555Z,2.63
2017-10-12T14:04:07.052Z,2.63
2017-10-12T14:06:34.575Z,2.77
2017-10-12T14:09:02.067Z,2.70
2017-10-12T14:11:29.583Z,2.50
2017-10-12T14:13:57.858Z,2.70
2017-10-12T14:16:25.385Z,2.97
2017-10-12T14:18:52.931Z,2.50
2017-10-12T14:21:20.440Z,2.87
2017-10-12T14:23:48.068Z,2.73
2017-10-12T14:28:58.335Z,2.70
2017-10-12T14:31:27.179Z,2.73
2017-10-12T14:33:55.474Z,2.90
2017-10-12T14:36:23.827Z,2.63
2017-10-12T14:38:51.350Z,2.40
2017-10-12T14:41:19.251Z,2.50
2017-10-12T14:43:46.767Z,2.80
2017-10-12T14:46:14.271Z,3.10
2017-10-12T14:48:41.788Z,2.73
2017-10-12T14:51:09.282Z,2.87
2017-10-12T14:53:36.796Z,2.30
2017-10-12T14:56:04.299Z,2.27
2017-10-12T14:58:32.579Z,2.30
2017-10-12T15:01:00.096Z,2.20
2017-10-12T15:03:28.399Z,2.47
2017-10-12T15:05:57.411Z,2.73
2017-10-12T15:08:25.718Z,2.10
2017-10-12T15:10:53.216Z,2.17
2017-10-12T15:13:21.143Z,2.40
2017-10-12T15:15:50.162Z,2.33
2017-10-12T15:18:18.067Z,1.90
2017-10-12T15:20:45.563Z,2.43
2017-10-12T15:23:13.832Z,2.77
2017-10-12T15:25:41.338Z,2.00
2017-10-12T15:28:08.844Z,2.33
2017-10-12T15:30:36.742Z,2.37
2017-10-12T15:33:04.245Z,2.60
2017-10-12T15:35:32.144Z,2.77
2017-10-12T15:37:59.647Z,2.10
2017-10-12T15:40:27.906Z,2.37
2017-10-12T15:42:56.928Z,1.60
2017-10-12T15:45:24.832Z,2.40
2017-10-12T15:47:52.323Z,1.73
2017-10-12T15:50:20.947Z,2.70
2017-10-12T15:52:49.211Z,2.03
2017-10-12T15:55:16.716Z,2.53
2017-10-12T15:57:44.230Z,2.00
2017-10-12T16:00:12.544Z,2.80
2017-10-12T16:02:40.053Z,2.47
2017-10-12T16:05:08.318Z,2.60
2017-10-12T16:07:35.843Z,2.10
2017-10-12T16:10:04.849Z,2.10
2017-10-12T16:12:32.359Z,2.40
2017-10-12T16:14:59.886Z,3.17
2017-10-12T16:17:28.532Z,3.10
2017-10-12T16:19:57.192Z,2.80
2017-10-12T16:24:52.344Z,3.40
2017-10-12T16:27:20.975Z,2.20
2017-10-12T16:29:48.493Z,2.00
2017-10-12T16:32:16.000Z,2.23
2017-10-12T16:34:43.526Z,2.40
2017-10-12T16:37:11.032Z,2.30
2017-10-12T16:39:38.955Z,2.53
2017-10-12T16:42:06.860Z,2.57
2017-10-12T16:44:34.384Z,2.23
2017-10-12T16:47:01.887Z,2.07
2017-10-12T16:49:29.400Z,2.27
2017-10-12T16:51:57.685Z,1.80
2017-10-12T16:54:25.219Z,2.07
2017-10-12T16:56:52.721Z,2.33
2017-10-12T16:59:20.256Z,2.50
2017-10-12T17:01:48.538Z,2.83
2017-10-12T17:04:16.835Z,2.67
2017-10-12T17:06:44.336Z,2.10
2017-10-12T17:09:13.011Z,2.67
2017-10-12T17:11:40.541Z,2.63
2017-10-12T17:14:08.456Z,2.30
2017-10-12T17:16:36.372Z,2.20
2017-10-12T17:19:03.871Z,2.40
2017-10-12T17:21:31.771Z,3.43
2017-10-12T17:23:59.299Z,3.10
2017-10-12T17:26:26.827Z,2.90
2017-10-12T17:28:54.325Z,2.60
2017-10-12T17:31:21.880Z,2.70
2017-10-12T17:33:50.153Z,2.83
2017-10-12T17:36:19.721Z,2.63
2017-10-12T17:38:47.249Z,3.03
2017-10-12T17:41:14.779Z,3.53
2017-10-12T17:43:42.293Z,2.97
2017-10-12T17:46:10.574Z,2.80
2017-10-12T17:48:38.108Z,2.43
2017-10-12T17:51:05.618Z,2.60
2017-10-12T17:53:33.539Z,2.17
2017-10-12T17:56:01.435Z,2.80
2017-10-12T17:58:29.359Z,3.70
2017-10-12T18:00:57.640Z,3.10
2017-10-12T18:03:25.344Z,3.23
2017-10-12T18:05:54.359Z,3.33
2017-10-12T18:08:21.851Z,2.83
2017-10-12T18:10:49.347Z,2.93
2017-10-12T18:13:18.363Z,4.20
2017-10-12T18:15:46.719Z,4.10
2017-10-12T18:18:14.804Z,3.63
2017-10-12T18:20:43.068Z,5.53
2017-10-12T18:23:10.588Z,7.07
2017-10-12T18:25:38.858Z,8.30
2017-10-12T18:28:06.349Z,5.37
2017-10-12T18:30:33.951Z,4.03
2017-10-12T18:33:02.597Z,4.20
2017-10-12T18:35:30.245Z,3.10
2017-10-12T18:37:58.530Z,3.10
2017-10-12T18:40:26.060Z,4.30
2017-10-12T18:42:53.566Z,2.80
2017-10-12T18:45:21.075Z,3.00
2017-10-12T18:47:48.575Z,2.63
2017-10-12T18:50:16.093Z,2.80
2017-10-12T18:52:43.590Z,2.70
2017-10-12T18:55:11.726Z,3.20
2017-10-12T18:57:39.623Z,3.90
2017-10-12T19:00:08.498Z,3.27
2017-10-12T19:05:03.911Z,2.57
2017-10-12T19:07:32.186Z,2.70
2017-10-12T19:10:00.481Z,2.50
2017-10-12T19:12:27.991Z,3.73
2017-10-12T19:14:55.512Z,3.40
2017-10-12T19:17:24.462Z,3.20
2017-10-12T19:19:52.380Z,3.10
2017-10-12T19:22:21.266Z,3.10
2017-10-12T19:24:49.547Z,3.03
2017-10-12T19:27:17.449Z,3.20
2017-10-12T19:29:45.900Z,3.40
2017-10-12T19:32:13.407Z,3.33
2017-10-12T19:34:42.067Z,3.37
2017-10-12T19:37:10.339Z,3.77
2017-10-12T19:39:38.269Z,3.70
2017-10-12T19:42:05.771Z,3.33
2017-10-12T19:44:34.327Z,4.50
2017-10-12T19:47:02.221Z,4.70
2017-10-12T19:49:29.715Z,4.27
2017-10-12T19:51:58.572Z,4.87
2017-10-12T19:54:27.212Z,4.00
2017-10-12T19:56:54.744Z,4.53
2017-10-12T19:59:22.240Z,4.60
2017-10-12T20:01:50.164Z,4.17
2017-10-12T20:04:17.663Z,5.20
2017-10-12T20:06:45.199Z,5.30
2017-10-12T20:09:12.714Z,4.33
2017-10-12T20:11:40.215Z,4.17
2017-10-12T20:14:22.693Z,3.07
2017-10-12T20:16:35.279Z,3.60
2017-10-12T20:19:02.807Z,4.03
2017-10-12T20:21:30.307Z,4.20
2017-10-12T20:28:53.696Z,4.40
2017-10-12T20:31:21.196Z,4.13
2017-10-12T20:33:48.719Z,3.83
2017-10-12T20:36:16.243Z,3.10
2017-10-12T20:38:44.584Z,3.13
2017-10-12T20:41:13.611Z,3.50
2017-10-12T20:43:42.299Z,3.33
2017-10-12T20:46:10.569Z,4.30
2017-10-12T20:48:38.476Z,3.53
2017-10-12T20:51:05.995Z,3.80
2017-10-12T20:53:33.500Z,4.00
2017-10-12T20:56:01.800Z,2.63
2017-10-12T20:58:29.304Z,3.83
2017-10-12T21:00:56.826Z,4.10
2017-10-12T21:03:24.347Z,3.67
2017-10-12T21:05:51.911Z,3.23
2017-10-12T21:08:19.406Z,3.17
2017-10-12T21:10:47.330Z,3.20
2017-10-12T21:13:16.181Z,3.10
2017-10-12T21:15:44.452Z,2.50
2017-10-12T21:18:12.360Z,2.60
2017-10-12T21:20:40.631Z,2.50
2017-10-12T21:23:08.139Z,2.53
2017-10-12T21:25:35.639Z,2.70
2017-10-12T21:28:03.179Z,2.90
2017-10-12T21:30:30.678Z,3.13
2017-10-12T21:32:58.955Z,2.97
2017-10-12T21:35:27.227Z,2.47
2017-10-12T21:37:54.789Z,2.73
2017-10-12T21:40:22.307Z,2.63
2017-10-12T21:42:49.803Z,3.13
2017-10-12T21:45:17.339Z,2.83
2017-10-12T21:47:44.845Z,2.80
2017-10-12T21:50:12.350Z,2.90
2017-10-12T21:52:40.623Z,3.00
2017-10-12T21:55:08.903Z,3.40
2017-10-12T21:57:37.758Z,3.40
2017-10-12T22:00:06.406Z,3.10
2017-10-12T22:02:33.924Z,3.00
2017-10-12T22:05:02.213Z,3.27
2017-10-12T22:07:30.479Z,3.40
2017-10-12T22:09:58.407Z,3.50
2017-10-12T22:12:25.912Z,3.90
2017-10-12T22:14:53.427Z,4.00
2017-10-12T22:17:20.922Z,3.40
2017-10-12T22:19:48.424Z,3.90
2017-10-12T22:22:16.314Z,3.30
2017-10-12T22:24:44.959Z,3.47
2017-10-12T22:27:12.471Z,3.17
2017-10-12T22:29:39.983Z,3.23
2017-10-12T22:32:08.859Z,4.43
2017-10-12T22:34:37.698Z,4.27
2017-10-12T22:37:05.218Z,4.90
2017-10-12T22:39:33.495Z,4.40
2017-10-12T22:42:01.419Z,4.53
2017-10-12T22:44:29.682Z,3.47
2017-10-12T22:46:57.243Z,3.60
2017-10-12T22:49:26.256Z,3.30
2017-10-12T22:51:53.760Z,3.63
2017-10-12T22:54:22.618Z,3.63
2017-10-12T22:56:50.127Z,4.10
2017-10-12T22:59:18.779Z,3.87
2017-10-12T23:01:46.284Z,4.17
2017-10-12T23:04:13.807Z,4.40
2017-10-12T23:06:42.088Z,4.27
2017-10-12T23:09:09.631Z,4.87
2017-10-12T23:11:37.127Z,4.50
2017-10-12T23:14:05.039Z,5.00
2017-10-12T23:16:32.959Z,4.73
2017-10-12T23:19:01.248Z,5.80
2017-10-12T23:21:28.759Z,6.30
2017-10-12T23:23:56.296Z,5.23
2017-10-12T23:26:24.558Z,5.60
2017-10-12T23:28:52.834Z,4.50
2017-10-12T23:31:21.099Z,4.27
2017-10-12T23:33:49.371Z,4.20
2017-10-12T23:36:17.291Z,3.50
2017-10-12T23:38:44.791Z,4.03
2017-10-12T23:41:12.316Z,3.57
2017-10-12T23:43:39.836Z,3.60
2017-10-12T23:46:07.355Z,3.60
2017-10-12T23:48:34.847Z,4.13
2017-10-12T23:51:03.748Z,5.03
2017-10-12T23:53:32.606Z,3.60
2017-10-12T23:56:01.466Z,3.47
2017-10-12T23:58:28.964Z,3.80
